CheckWX is a tool to help pilots better visualize weather data.  It is not intended as a substitute for an official pre-flight weather briefing.

02:05:36 UTC

M08 METAR
William L Whitehurst Field Airport
Bolivar, Tennessee, USA
Current

11 mins ago

KM08 230155Z AUTO 00000KT 10SM OVC003 09/09 A2996 RMK A01
Observed
Nov-23 @ 01:55 UTC
Visibility
10 SM
Flight Rules
LIFR
Cloud Levels
  • Overcast at 300' AGL
Temperature
C / 48°F
Dewpoint
C / 48°F
Humidity
100%
Altimeter
29.96" Hg
Pressure
1014.52 hPa
Previous

31 mins ago

KM08 230135Z AUTO 34005KT 10SM OVC004 10/09 A2997 RMK A01
Observed
Nov-23 @ 01:35 UTC
Wind
  • 340° at 5 KTS
Visibility
10 SM
Flight Rules
LIFR
Cloud Levels
  • Overcast at 400' AGL
Temperature
10°C / 50°F
Dewpoint
C / 48°F
Humidity
94%
Altimeter
29.97" Hg
Pressure
1014.92 hPa
Previous

51 mins ago

KM08 230115Z AUTO 04004KT 10SM OVC004 10/09 A2995 RMK A01
Observed
Nov-23 @ 01:15 UTC
Wind
  • 040° at 4 KTS
Visibility
10 SM
Flight Rules
LIFR
Cloud Levels
  • Overcast at 400' AGL
Temperature
10°C / 50°F
Dewpoint
C / 48°F
Humidity
94%
Altimeter
29.95" Hg
Pressure
1014.22 hPa